Time;durP1;ratioP1;P1;durP2;ratioP2;P2;SDS_P1;SDS_P2;PMS_P1;PMS_P2;Temp;Humidity;BMP_temperature;BMP_pressure;BME280_temperature;BME280_humidity;BME280_pressure;Samples;Min_cycle;Max_cycle;Signal;HPM_P1;HPM_P2
2023/02/26 00:01:39;;;;;;;44.20;16.00;;;;;;;12.62;56.66;100322.27;110453;1269;22138;-57
2023/02/26 00:04:08;;;;;;;40.00;13.50;;;;;;;12.59;56.81;100316.10;110487;1275;22144;-58
2023/02/26 00:06:38;;;;;;;48.50;15.20;;;;;;;12.57;57.05;100314.27;110352;1270;22455;-59
2023/02/26 00:09:06;;;;;;;41.80;15.70;;;;;;;12.56;57.29;100312.71;110479;1275;22928;-57
2023/02/26 00:11:35;;;;;;;48.80;15.90;;;;;;;12.58;57.34;100320.67;110488;1275;22408;-56
2023/02/26 00:14:09;;;;;;;42.50;14.60;;;;;;;12.57;57.49;100328.34;109590;1275;1002407;-58
2023/02/26 00:16:39;;;;;;;31.50;14.10;;;;;;;12.57;57.42;100323.98;110367;1271;22107;-59
2023/02/26 00:19:09;;;;;;;28.60;13.20;;;;;;;12.57;57.41;100329.26;110232;1269;22906;-58
2023/02/26 00:21:38;;;;;;;32.00;11.80;;;;;;;12.56;57.44;100328.75;110350;1275;22308;-58
2023/02/26 00:24:07;;;;;;;37.50;12.90;;;;;;;12.56;57.61;100324.89;110357;1268;22446;-58
2023/02/26 00:26:35;;;;;;;43.10;16.20;;;;;;;12.57;57.72;100315.81;110495;1268;22154;-58
2023/02/26 00:29:04;;;;;;;55.80;15.30;;;;;;;12.59;57.66;100311.57;110457;1275;22830;-59
2023/02/26 00:31:44;;;;;;;38.10;15.00;;;;;;;12.61;57.57;100307.13;110441;1275;22148;-59
2023/02/26 00:34:12;;;;;;;32.90;12.20;;;;;;;12.62;57.54;100311.30;109438;1271;1002159;-59
2023/02/26 00:37:04;;;;;;;41.60;13.50;;;;;;;12.61;57.47;100304.02;109691;1269;1002314;-56
2023/02/26 00:39:44;;;;;;;48.60;16.00;;;;;;;12.59;57.55;100282.70;110467;1270;22124;-56
2023/02/26 00:42:13;;;;;;;43.70;15.30;;;;;;;12.57;57.79;100304.87;110536;1268;22156;-59
2023/02/26 00:44:43;;;;;;;44.60;14.30;;;;;;;12.57;57.92;100318.63;110447;1275;22416;-59
2023/02/26 00:47:26;;;;;;;39.10;13.00;;;;;;;12.57;57.98;100310.25;110475;1268;22817;-59
2023/02/26 00:50:01;;;;;;;35.60;12.90;;;;;;;12.57;57.89;100308.17;110224;1275;22810;-58
2023/02/26 00:52:30;;;;;;;29.00;11.90;;;;;;;12.56;57.87;100312.05;110460;1270;22137;-57
2023/02/26 00:54:58;;;;;;;25.70;11.20;;;;;;;12.54;57.87;100320.12;110486;1268;23008;-58
2023/02/26 00:57:26;;;;;;;27.50;10.40;;;;;;;12.54;58.03;100342.40;110508;1275;22334;-58
2023/02/26 00:59:55;;;;;;;22.40;10.50;;;;;;;12.51;57.95;100367.73;110476;1272;22458;-58
2023/02/26 01:02:24;;;;;;;23.90;9.20;;;;;;;12.46;58.08;100399.40;110463;1275;23077;-59
2023/02/26 01:04:52;;;;;;;16.70;8.90;;;;;;;12.47;58.20;100419.02;110272;1268;22305;-58
2023/02/26 01:07:23;;;;;;;22.60;9.40;;;;;;;12.48;58.26;100418.80;110514;1268;23075;-57
2023/02/26 01:09:51;;;;;;;20.70;9.40;;;;;;;12.52;58.24;100424.95;110407;1276;22805;-59
2023/02/26 01:12:20;;;;;;;22.10;9.80;;;;;;;12.54;58.36;100423.28;110430;1270;22410;-59
2023/02/26 01:14:51;;;;;;;18.00;8.40;;;;;;;12.57;58.52;100402.48;110521;1272;23059;-58
2023/02/26 01:17:53;;;;;;;17.00;9.10;;;;;;;12.54;58.44;100390.23;109669;1268;1002382;-58
2023/02/26 01:20:46;;;;;;;17.60;10.40;;;;;;;12.45;58.75;100388.48;109910;1275;22203;-58
2023/02/26 01:23:20;;;;;;;17.10;10.10;;;;;;;12.43;59.06;100396.71;109566;1283;22255;-56
2023/02/26 01:25:59;;;;;;;14.40;8.30;;;;;;;12.45;59.24;100419.43;109620;1282;22184;-59
2023/02/26 01:28:28;;;;;;;14.50;8.80;;;;;;;12.48;59.55;100436.39;109593;1288;22583;-60
2023/02/26 01:31:04;;;;;;;14.60;8.00;;;;;;;12.53;59.64;100442.49;109458;1284;22301;-58
2023/02/26 01:33:40;;;;;;;25.30;10.90;;;;;;;12.57;59.61;100444.24;109618;1288;23014;-58
2023/02/26 01:36:11;;;;;;;16.50;9.00;;;;;;;12.60;59.62;100441.68;109591;1281;22199;-57
2023/02/26 01:38:58;;;;;;;16.50;8.70;;;;;;;12.63;59.58;100454.45;109607;1283;22983;-58
2023/02/26 01:41:29;;;;;;;19.20;11.00;;;;;;;12.66;59.71;100465.67;109601;1288;22530;-58
2023/02/26 01:44:16;;;;;;;21.00;11.10;;;;;;;12.69;59.79;100459.33;109623;1283;22179;-59
2023/02/26 01:47:05;;;;;;;26.20;12.20;;;;;;;12.72;59.85;100445.10;109651;1281;22364;-58
2023/02/26 01:49:34;;;;;;;25.20;12.30;;;;;;;12.73;59.76;100432.73;108853;1281;1002108;-56
2023/02/26 01:52:04;;;;;;;33.40;13.30;;;;;;;12.74;59.65;100431.11;109652;1281;23112;-57
2023/02/26 01:54:37;;;;;;;38.80;16.60;;;;;;;12.74;59.81;100427.61;109360;1285;22196;-58
2023/02/26 01:57:13;;;;;;;43.80;17.10;;;;;;;12.75;59.96;100432.98;109783;1283;22232;-58
2023/02/26 01:59:47;;;;;;;43.70;17.40;;;;;;;12.76;59.91;100421.83;109987;1275;22385;-57
2023/02/26 02:02:21;;;;;;;42.90;17.30;;;;;;;12.72;59.75;100421.79;110446;1273;22097;-59
2023/02/26 02:04:50;;;;;;;25.50;13.80;;;;;;;12.63;60.14;100419.99;110359;1270;22149;-59
2023/02/26 02:07:19;;;;;;;28.60;13.30;;;;;;;12.60;60.24;100408.98;110432;1268;22226;-59
2023/02/26 02:09:48;;;;;;;32.60;15.40;;;;;;;12.59;60.46;100401.89;110484;1268;22217;-59
2023/02/26 02:12:28;;;;;;;25.10;13.60;;;;;;;12.55;60.62;100397.33;110500;1267;22248;-59
2023/02/26 02:15:02;;;;;;;28.50;15.40;;;;;;;12.47;60.92;100402.14;110544;1268;22178;-58
2023/02/26 02:17:50;;;;;;;23.60;13.10;;;;;;;12.43;61.16;100411.32;110347;1272;22411;-59
2023/02/26 02:20:29;;;;;;;85.10;26.20;;;;;;;12.44;61.25;100417.58;110311;1275;22952;-59
2023/02/26 02:23:18;;;;;;;60.00;21.00;;;;;;;12.46;61.31;100416.96;109579;1275;1002243;-57
2023/02/26 02:26:09;;;;;;;83.50;25.60;;;;;;;12.49;61.41;100407.80;110476;1275;22220;-57
2023/02/26 02:28:41;;;;;;;71.00;26.00;;;;;;;12.53;61.26;100409.59;110460;1268;22362;-59
2023/02/26 02:31:45;;;;;;;54.60;19.60;;;;;;;12.54;61.25;100420.15;110358;1270;22138;-59
2023/02/26 02:34:18;;;;;;;34.90;17.70;;;;;;;12.55;61.08;100428.15;110062;1273;22179;-59
2023/02/26 02:36:57;;;;;;;40.70;17.70;;;;;;;12.53;61.05;100428.90;109242;1274;1002268;-59
2023/02/26 02:39:30;;;;;;;43.50;17.90;;;;;;;12.52;61.08;100423.38;109946;1280;22269;-57
2023/02/26 02:42:02;;;;;;;40.20;17.60;;;;;;;12.53;60.98;100422.83;110018;1275;22158;-59
2023/02/26 02:44:34;;;;;;;45.30;18.60;;;;;;;12.52;60.86;100459.02;109974;1278;22181;-59
2023/02/26 02:47:02;;;;;;;51.60;19.50;;;;;;;12.50;60.71;100486.23;110000;1280;22922;-59
2023/02/26 02:49:41;;;;;;;44.80;19.60;;;;;;;12.49;60.72;100483.84;110050;1280;23193;-57
2023/02/26 02:52:24;;;;;;;40.90;20.70;;;;;;;12.46;61.02;100483.07;109339;1273;1002192;-59
2023/02/26 02:55:17;;;;;;;47.20;22.50;;;;;;;12.47;61.28;100477.14;110023;1280;22197;-57
2023/02/26 02:58:10;;;;;;;36.30;22.40;;;;;;;12.49;61.31;100484.90;110054;1280;22444;-59
2023/02/26 03:00:42;;;;;;;46.40;23.40;;;;;;;12.49;61.42;100465.38;110099;1272;22308;-59
2023/02/26 03:03:26;;;;;;;36.30;21.80;;;;;;;12.50;61.44;100460.16;109942;1276;22196;-59
2023/02/26 03:05:56;;;;;;;43.30;23.00;;;;;;;12.47;61.59;100478.86;109901;1280;22289;-57
2023/02/26 03:08:29;;;;;;;36.30;23.90;;;;;;;12.46;61.76;100476.45;110101;1272;22408;-57
2023/02/26 03:10:57;;;;;;;38.50;22.60;;;;;;;12.49;61.86;100485.92;110313;1275;22150;-60
2023/02/26 03:13:26;;;;;;;35.30;23.60;;;;;;;12.51;61.85;100500.81;110541;1268;22488;-59
2023/02/26 03:16:29;;;;;;;44.70;25.50;;;;;;;12.53;61.95;100508.74;110446;1268;22333;-59
2023/02/26 03:19:00;;;;;;;40.60;23.40;;;;;;;12.54;61.86;100517.77;109944;1280;22363;-59
2023/02/26 03:21:39;;;;;;;41.40;22.90;;;;;;;12.55;61.90;100539.31;109986;1280;22272;-57
2023/02/26 03:24:49;;;;;;;34.70;22.10;;;;;;;12.56;61.94;100551.45;109814;1277;22350;-59
2023/02/26 03:27:23;;;;;;;42.10;23.80;;;;;;;12.58;61.83;100550.00;109785;1278;22424;-59
2023/02/26 03:29:59;;;;;;;35.40;22.00;;;;;;;12.59;61.79;100540.59;109795;1278;22203;-59
2023/02/26 03:32:41;;;;;;;37.50;22.00;;;;;;;12.59;61.91;100536.23;109722;1278;22394;-59
2023/02/26 03:35:15;;;;;;;34.40;20.80;;;;;;;12.61;61.92;100538.44;109716;1280;22165;-59
2023/02/26 03:37:55;;;;;;;36.30;22.50;;;;;;;12.61;62.01;100527.60;109628;1282;22342;-59
2023/02/26 03:40:26;;;;;;;36.80;22.50;;;;;;;12.63;61.92;100511.38;109683;1286;22330;-59
2023/02/26 03:43:07;;;;;;;36.50;21.00;;;;;;;12.63;61.97;100506.68;109623;1278;22393;-60
2023/02/26 03:45:37;;;;;;;30.60;20.30;;;;;;;12.63;62.09;100505.30;109675;1278;23179;-60
2023/02/26 03:48:06;;;;;;;38.90;21.90;;;;;;;12.64;62.20;100494.26;109768;1286;22443;-59
2023/02/26 03:50:36;;;;;;;36.50;21.70;;;;;;;12.65;62.17;100496.50;109765;1280;22208;-59
2023/02/26 03:53:29;;;;;;;31.70;18.90;;;;;;;12.64;61.79;100518.11;108905;1284;1002331;-59
2023/02/26 03:56:30;;;;;;;31.60;19.70;;;;;;;12.64;61.87;100529.80;109814;1281;22179;-59
2023/02/26 03:59:01;;;;;;;33.10;20.60;;;;;;;12.63;61.90;100526.66;109962;1281;22169;-59
2023/02/26 04:01:53;;;;;;;33.70;20.20;;;;;;;12.64;61.94;100517.59;110002;1276;22325;-59
2023/02/26 04:04:41;;;;;;;29.70;20.50;;;;;;;12.65;61.87;100523.63;110344;1274;22416;-59
2023/02/26 04:07:11;;;;;;;34.30;19.80;;;;;;;12.66;61.77;100546.77;110454;1267;22133;-59
2023/02/26 04:09:41;;;;;;;35.10;20.30;;;;;;;12.65;61.79;100551.31;110323;1271;22426;-59
2023/02/26 04:12:10;;;;;;;54.60;23.70;;;;;;;12.65;61.88;100572.20;110500;1268;22135;-60
2023/02/26 04:14:42;;;;;;;52.80;26.00;;;;;;;12.65;61.85;100575.17;110444;1260;22304;-59
2023/02/26 04:17:11;;;;;;;47.20;24.70;;;;;;;12.65;61.76;100574.66;110176;1273;22320;-59
2023/02/26 04:19:40;;;;;;;51.60;23.80;;;;;;;12.64;61.72;100569.29;110491;1268;22984;-59
2023/02/26 04:22:09;;;;;;;44.70;24.00;;;;;;;12.64;61.65;100567.55;110158;1271;354604;-60
2023/02/26 04:24:39;;;;;;;49.30;23.40;;;;;;;12.63;61.75;100573.16;110464;1275;22381;-59
2023/02/26 04:27:08;;;;;;;40.70;22.80;;;;;;;12.61;61.68;100567.48;110498;1268;22412;-59
2023/02/26 04:29:36;;;;;;;52.10;25.40;;;;;;;12.57;61.69;100560.30;109721;1275;1003102;-59
2023/02/26 04:32:04;;;;;;;48.60;25.10;;;;;;;12.55;61.72;100559.31;110200;1275;22416;-59
2023/02/26 04:34:33;;;;;;;46.30;23.30;;;;;;;12.53;61.70;100568.08;109717;1268;1002474;-59
2023/02/26 04:37:03;;;;;;;41.70;21.30;;;;;;;12.49;61.54;100583.52;110189;1275;22349;-59
2023/02/26 04:39:32;;;;;;;34.20;18.70;;;;;;;12.44;61.71;100582.48;110370;1274;22418;-59
2023/02/26 04:42:03;;;;;;;34.80;18.40;;;;;;;12.36;61.67;100583.98;110481;1269;22152;-59
2023/02/26 04:44:32;;;;;;;29.50;17.20;;;;;;;12.26;61.87;100585.48;110177;1274;22290;-60
2023/02/26 04:47:00;;;;;;;30.20;17.50;;;;;;;12.21;61.86;100573.83;110507;1268;22390;-60
2023/02/26 04:49:30;;;;;;;27.00;17.30;;;;;;;12.15;61.78;100564.27;110546;1275;22433;-59
2023/02/26 04:51:59;;;;;;;21.10;13.70;;;;;;;12.06;61.96;100565.08;110504;1275;22354;-59
2023/02/26 04:54:27;;;;;;;22.80;12.90;;;;;;;11.97;62.19;100570.04;110508;1268;22152;-59
2023/02/26 04:56:56;;;;;;;24.40;12.80;;;;;;;11.91;62.36;100569.89;110480;1275;22497;-59
2023/02/26 04:59:24;;;;;;;19.00;12.70;;;;;;;11.84;62.38;100578.11;110452;1275;22127;-60
2023/02/26 05:01:53;;;;;;;22.10;13.50;;;;;;;11.77;62.53;100584.91;110451;1268;23107;-60
2023/02/26 05:04:21;;;;;;;21.00;11.40;;;;;;;11.74;62.60;100587.43;110490;1275;22397;-59
2023/02/26 05:06:51;;;;;;;24.30;11.10;;;;;;;11.73;62.63;100598.77;110444;1268;23019;-59
2023/02/26 05:09:21;;;;;;;15.90;11.00;;;;;;;11.70;62.70;100598.50;110156;1273;22387;-59
2023/02/26 05:11:50;;;;;;;24.50;10.90;;;;;;;11.68;62.69;100595.61;110471;1270;22446;-60
2023/02/26 05:14:18;;;;;;;18.60;11.30;;;;;;;11.62;62.67;100605.46;110523;1268;22937;-60
2023/02/26 05:16:51;;;;;;;24.60;11.90;;;;;;;11.58;62.70;100630.11;109720;1269;1002685;-59
2023/02/26 05:19:19;;;;;;;21.10;11.70;;;;;;;11.57;62.75;100628.39;110557;1268;22142;-60
2023/02/26 05:21:50;;;;;;;26.00;12.30;;;;;;;11.56;62.72;100620.59;110488;1275;22364;-59
2023/02/26 05:24:19;;;;;;;20.60;13.00;;;;;;;11.53;62.94;100622.41;110474;1275;22397;-60
2023/02/26 05:26:47;;;;;;;20.40;12.90;;;;;;;11.49;63.22;100624.09;110505;1268;22406;-60
2023/02/26 05:29:15;;;;;;;22.90;12.70;;;;;;;11.46;63.39;100626.77;110489;1272;22293;-59
2023/02/26 05:31:44;;;;;;;25.20;12.40;;;;;;;11.43;63.39;100632.56;110504;1268;22347;-59
2023/02/26 05:34:15;;;;;;;29.70;12.10;;;;;;;11.40;63.54;100636.31;109549;1271;1002765;-59
2023/02/26 05:36:44;;;;;;;26.40;12.90;;;;;;;11.36;63.76;100647.69;110280;1276;22946;-59
2023/02/26 05:39:12;;;;;;;21.50;11.10;;;;;;;11.35;64.06;100651.89;110497;1268;22462;-59
2023/02/26 05:41:40;;;;;;;18.70;10.70;;;;;;;11.34;64.21;100655.58;110512;1275;22300;-59
2023/02/26 05:44:09;;;;;;;20.50;10.50;;;;;;;11.35;64.34;100657.80;110486;1268;22285;-60
2023/02/26 05:46:37;;;;;;;22.70;11.70;;;;;;;11.35;64.30;100662.64;110495;1269;22839;-60
2023/02/26 05:49:06;;;;;;;18.40;11.30;;;;;;;11.35;64.28;100660.39;110494;1268;22632;-59
2023/02/26 05:51:35;;;;;;;21.20;11.50;;;;;;;11.36;64.39;100659.85;110491;1275;22813;-59
2023/02/26 05:54:03;;;;;;;15.30;9.90;;;;;;;11.37;64.42;100657.73;110487;1269;22353;-59
2023/02/26 05:56:31;;;;;;;15.10;10.00;;;;;;;11.39;64.50;100656.84;110480;1268;22301;-59
2023/02/26 05:59:00;;;;;;;19.30;11.00;;;;;;;11.38;64.44;100650.60;110548;1274;22455;-59
2023/02/26 06:01:29;;;;;;;17.90;11.10;;;;;;;11.36;64.44;100642.64;110500;1269;22314;-59
2023/02/26 06:03:57;;;;;;;20.60;10.10;;;;;;;11.35;64.43;100646.50;110173;1271;22249;-59
2023/02/26 06:06:25;;;;;;;30.40;11.10;;;;;;;11.36;64.43;100650.30;110526;1275;22122;-59
2023/02/26 06:08:54;;;;;;;16.30;10.20;;;;;;;11.38;64.60;100653.56;110539;1268;22306;-59
2023/02/26 06:11:25;;;;;;;16.50;9.20;;;;;;;11.40;64.47;100652.09;110491;1275;22127;-59
2023/02/26 06:13:54;;;;;;;18.80;10.70;;;;;;;11.39;64.41;100654.06;110483;1271;22472;-59
2023/02/26 06:16:23;;;;;;;17.00;10.00;;;;;;;11.39;64.37;100657.71;110275;1271;22164;-59
2023/02/26 06:18:58;;;;;;;16.20;11.00;;;;;;;11.42;64.26;100655.70;110482;1269;23198;-59
2023/02/26 06:21:26;;;;;;;20.90;11.90;;;;;;;11.44;64.25;100657.39;110550;1268;22386;-59
2023/02/26 06:23:54;;;;;;;17.70;11.20;;;;;;;11.45;64.16;100659.28;110533;1268;22470;-59
2023/02/26 06:26:22;;;;;;;16.30;10.60;;;;;;;11.43;64.11;100646.30;110560;1268;22286;-60
2023/02/26 06:28:52;;;;;;;16.70;10.30;;;;;;;11.41;64.07;100656.59;110548;1268;22124;-59
2023/02/26 06:31:22;;;;;;;16.10;10.80;;;;;;;11.41;63.98;100661.11;110544;1268;22144;-59
2023/02/26 06:33:51;;;;;;;16.20;9.60;;;;;;;11.44;64.01;100669.71;110507;1275;22111;-59
2023/02/26 06:36:19;;;;;;;16.50;10.50;;;;;;;11.45;64.08;100668.64;109756;1275;1002151;-59
2023/02/26 06:38:47;;;;;;;16.10;10.00;;;;;;;11.50;64.22;100669.05;110296;1275;22443;-59
2023/02/26 06:41:15;;;;;;;16.50;10.90;;;;;;;11.55;64.12;100670.29;110520;1268;22928;-59
2023/02/26 06:43:44;;;;;;;17.30;10.70;;;;;;;11.61;63.96;100672.05;109803;1269;1002671;-59
2023/02/26 06:46:12;;;;;;;15.20;10.20;;;;;;;11.64;63.61;100679.10;110584;1275;22368;-59
2023/02/26 06:48:42;;;;;;;17.90;10.40;;;;;;;11.63;63.56;100695.98;110248;1275;22158;-59
2023/02/26 06:51:10;;;;;;;14.10;9.70;;;;;;;11.65;63.59;100695.04;110564;1268;22392;-59
2023/02/26 06:53:38;;;;;;;16.80;9.80;;;;;;;11.67;63.48;100690.84;110236;1275;23061;-59
2023/02/26 06:56:07;;;;;;;14.60;10.20;;;;;;;11.70;63.48;100695.28;110508;1275;22080;-59
2023/02/26 06:58:35;;;;;;;16.90;10.10;;;;;;;11.74;63.27;100692.74;109786;1268;1002753;-59
2023/02/26 07:01:03;;;;;;;16.40;10.20;;;;;;;11.75;63.18;100704.34;110518;1275;22418;-59
2023/02/26 07:03:32;;;;;;;18.30;10.30;;;;;;;11.76;63.10;100707.80;110578;1275;22418;-59
2023/02/26 07:06:02;;;;;;;22.80;11.60;;;;;;;11.77;63.15;100715.24;110539;1275;22468;-59
2023/02/26 07:08:51;;;;;;;24.10;12.60;;;;;;;11.77;63.07;100716.46;110311;1271;22424;-59
2023/02/26 07:11:20;;;;;;;19.60;12.50;;;;;;;11.78;63.04;100717.48;110230;1275;22300;-59
2023/02/26 07:13:50;;;;;;;20.50;11.60;;;;;;;11.80;62.94;100720.74;110540;1275;22305;-59
2023/02/26 07:16:19;;;;;;;21.30;11.20;;;;;;;11.81;62.95;100729.56;109460;1275;1002433;-59
2023/02/26 07:18:47;;;;;;;15.30;10.60;;;;;;;11.84;62.85;100729.65;110575;1268;22435;-59
2023/02/26 07:21:16;;;;;;;14.00;9.70;;;;;;;11.85;62.71;100733.47;110300;1268;23143;-59
2023/02/26 07:23:44;;;;;;;14.40;10.10;;;;;;;11.81;62.56;100728.69;110392;1268;22443;-60
2023/02/26 07:26:12;;;;;;;15.20;9.80;;;;;;;11.78;62.65;100723.91;110313;1271;22304;-59
2023/02/26 07:28:40;;;;;;;12.40;9.80;;;;;;;11.78;62.51;100732.08;110590;1268;22360;-59
2023/02/26 07:31:09;;;;;;;17.00;11.10;;;;;;;11.78;62.50;100734.34;110546;1268;22893;-59
2023/02/26 07:33:38;;;;;;;24.80;11.10;;;;;;;11.78;62.49;100730.34;110582;1268;22356;-59
2023/02/26 07:36:06;;;;;;;22.90;11.60;;;;;;;11.77;62.67;100713.15;110547;1275;22125;-59
2023/02/26 07:38:35;;;;;;;16.80;9.90;;;;;;;11.77;62.71;100709.86;110550;1275;22344;-59
2023/02/26 07:41:05;;;;;;;17.30;12.00;;;;;;;11.74;62.58;100707.52;110226;1271;23222;-59
2023/02/26 07:43:34;;;;;;;16.80;11.50;;;;;;;11.69;62.53;100688.19;110586;1275;22371;-59
2023/02/26 07:46:03;;;;;;;15.70;9.70;;;;;;;11.67;62.80;100696.41;110640;1268;22386;-59
2023/02/26 07:48:31;;;;;;;14.40;9.20;;;;;;;11.67;62.86;100718.13;110652;1268;23055;-59
2023/02/26 07:50:59;;;;;;;15.00;9.80;;;;;;;11.67;62.74;100723.86;110539;1269;22309;-59
2023/02/26 07:53:28;;;;;;;11.50;8.80;;;;;;;11.66;62.87;100715.52;110600;1275;22302;-60
2023/02/26 07:55:59;;;;;;;14.40;10.50;;;;;;;11.68;62.68;100713.23;110534;1275;23027;-59
2023/02/26 07:58:28;;;;;;;13.10;9.50;;;;;;;11.69;62.74;100723.80;110586;1268;22116;-59
2023/02/26 08:00:57;;;;;;;15.80;9.10;;;;;;;11.71;62.54;100727.94;110581;1271;22831;-59
2023/02/26 08:03:27;;;;;;;12.70;9.60;;;;;;;11.69;62.50;100718.26;110584;1267;22399;-59
2023/02/26 08:05:57;;;;;;;12.50;8.80;;;;;;;11.65;62.48;100702.67;110540;1275;23101;-59
2023/02/26 08:08:33;;;;;;;20.80;10.00;;;;;;;11.65;62.46;100699.91;110626;1268;22153;-59
2023/02/26 08:11:02;;;;;;;14.30;10.20;;;;;;;11.68;62.41;100699.17;110607;1268;22297;-59
2023/02/26 08:13:30;;;;;;;14.80;10.00;;;;;;;11.70;62.36;100705.88;109788;1268;1002376;-59
2023/02/26 08:15:59;;;;;;;26.00;13.60;;;;;;;11.72;62.24;100701.48;110594;1275;22132;-59
2023/02/26 08:18:27;;;;;;;19.20;12.20;;;;;;;11.74;62.35;100699.19;110215;1271;22307;-59
2023/02/26 08:20:59;;;;;;;15.20;10.10;;;;;;;11.72;62.37;100689.30;110586;1275;22166;-59
2023/02/26 08:23:28;;;;;;;14.50;9.60;;;;;;;11.72;62.47;100686.70;110588;1275;22840;-59
2023/02/26 08:26:01;;;;;;;15.80;10.10;;;;;;;11.73;62.38;100686.17;109683;1273;1002157;-59
2023/02/26 08:28:29;;;;;;;16.50;10.40;;;;;;;11.73;62.36;100685.13;110606;1268;22909;-59
2023/02/26 08:31:03;;;;;;;12.80;9.40;;;;;;;11.73;62.28;100678.85;110423;1274;22500;-59
2023/02/26 08:33:34;;;;;;;14.90;9.70;;;;;;;11.74;62.64;100675.35;110603;1275;23139;-59
2023/02/26 08:36:02;;;;;;;14.00;9.70;;;;;;;11.77;62.71;100676.66;110561;1268;23081;-59
2023/02/26 08:38:31;;;;;;;17.30;9.80;;;;;;;11.82;62.58;100693.40;110583;1275;22391;-59
2023/02/26 08:40:59;;;;;;;14.20;9.00;;;;;;;11.86;62.63;100700.22;110570;1275;22136;-59
2023/02/26 08:43:28;;;;;;;16.10;9.90;;;;;;;11.90;62.46;100686.03;109838;1268;1002204;-58
2023/02/26 08:45:58;;;;;;;15.90;10.10;;;;;;;11.93;62.35;100673.95;109833;1268;1002771;-59
2023/02/26 08:48:26;;;;;;;17.60;10.70;;;;;;;11.97;62.42;100678.36;110598;1269;22399;-59
2023/02/26 08:50:55;;;;;;;16.90;10.00;;;;;;;12.00;62.43;100684.18;110525;1275;22391;-59
2023/02/26 08:53:23;;;;;;;20.70;11.80;;;;;;;12.02;62.21;100685.33;110602;1275;22390;-60
2023/02/26 08:55:52;;;;;;;16.40;10.20;;;;;;;12.02;62.40;100678.05;110566;1269;22129;-58
2023/02/26 08:58:20;;;;;;;20.20;11.00;;;;;;;12.07;62.27;100677.73;110567;1271;22353;-58
2023/02/26 09:00:49;;;;;;;20.30;10.50;;;;;;;12.11;62.04;100693.05;110526;1275;22887;-59
2023/02/26 09:03:18;;;;;;;20.00;10.50;;;;;;;12.14;62.17;100697.84;110568;1275;22377;-59
2023/02/26 09:05:47;;;;;;;20.00;10.50;;;;;;;12.18;62.23;100713.91;110566;1275;22149;-58
2023/02/26 09:08:16;;;;;;;22.10;12.00;;;;;;;12.25;62.05;100736.84;110577;1271;22300;-58
2023/02/26 09:10:44;;;;;;;19.30;12.30;;;;;;;12.32;61.75;100744.45;110431;1269;22382;-59
2023/02/26 09:13:14;;;;;;;21.80;11.20;;;;;;;12.37;61.36;100740.65;110577;1271;22304;-59
2023/02/26 09:15:42;;;;;;;18.20;10.50;;;;;;;12.39;61.15;100730.69;110593;1275;22142;-59
2023/02/26 09:18:14;;;;;;;19.80;11.50;;;;;;;12.41;60.92;100733.77;110563;1268;22964;-59
2023/02/26 09:20:43;;;;;;;21.30;11.70;;;;;;;12.42;60.94;100739.12;110572;1269;22344;-59
2023/02/26 09:23:12;;;;;;;19.10;12.60;;;;;;;12.42;60.80;100744.52;110411;1274;22445;-59
2023/02/26 09:25:40;;;;;;;22.90;12.70;;;;;;;12.39;60.84;100744.95;110579;1275;22288;-59
2023/02/26 09:28:08;;;;;;;24.40;13.10;;;;;;;12.36;60.78;100732.52;110622;1275;22449;-59
2023/02/26 09:30:38;;;;;;;23.80;13.00;;;;;;;12.32;60.72;100715.75;110103;1275;22126;-59
2023/02/26 09:33:08;;;;;;;21.40;12.20;;;;;;;12.27;60.97;100710.88;110596;1268;22374;-58
2023/02/26 09:35:37;;;;;;;23.80;13.30;;;;;;;12.24;61.11;100720.88;109814;1271;1002205;-59
2023/02/26 09:38:07;;;;;;;23.10;13.80;;;;;;;12.23;61.15;100715.15;110598;1269;22363;-59
2023/02/26 09:40:44;;;;;;;25.40;13.20;;;;;;;12.24;61.27;100712.17;110616;1275;22387;-59
2023/02/26 09:43:32;;;;;;;24.30;13.20;;;;;;;12.23;61.14;100715.14;110602;1270;22103;-59
2023/02/26 09:46:05;;;;;;;22.70;13.70;;;;;;;12.21;61.22;100718.15;110328;1274;22142;-59
2023/02/26 09:48:34;;;;;;;29.50;14.40;;;;;;;12.18;61.30;100709.38;110313;1274;22232;-59
2023/02/26 09:51:04;;;;;;;28.30;15.40;;;;;;;12.15;61.21;100695.73;110322;1269;23075;-59
2023/02/26 09:53:37;;;;;;;35.60;15.00;;;;;;;12.10;61.30;100694.66;110587;1269;22447;-59
2023/02/26 09:56:15;;;;;;;;;;;;;;;12.03;61.42;100691.21;110540;1275;22371;-59
2023/02/26 09:58:44;;;;;;;28.50;15.20;;;;;;;11.98;61.59;100688.59;110606;1268;23126;-59
2023/02/26 10:01:30;;;;;;;27.30;14.60;;;;;;;11.93;61.72;100687.33;110555;1273;22351;-59
2023/02/26 10:04:18;;;;;;;29.50;15.60;;;;;;;11.90;62.07;100686.38;110027;1274;22186;-59
2023/02/26 10:07:07;;;;;;;26.80;15.90;;;;;;;11.90;62.72;100685.17;110070;1273;22343;-59
2023/02/26 10:09:41;;;;;;;27.80;14.90;;;;;;;11.97;62.91;100684.63;109984;1279;22194;-59
2023/02/26 10:12:15;;;;;;;26.80;15.40;;;;;;;12.07;63.04;100677.01;110183;1271;22261;-59
2023/02/26 10:14:58;;;;;;;24.20;14.60;;;;;;;12.18;62.87;100674.77;109282;1274;1002428;-59
2023/02/26 10:17:33;;;;;;;25.80;15.50;;;;;;;12.26;62.84;100685.85;110168;1276;22415;-59
2023/02/26 10:20:14;;;;;;;23.60;14.30;;;;;;;12.35;63.01;100700.53;110006;1279;22352;-59
2023/02/26 10:22:58;;;;;;;25.60;14.50;;;;;;;12.47;62.87;100699.81;110164;1272;22844;-59
2023/02/26 10:25:32;;;;;;;25.80;14.30;;;;;;;12.61;62.75;100694.67;110032;1279;22314;-59
2023/02/26 10:28:22;;;;;;;27.10;15.20;;;;;;;12.75;62.25;100690.94;109935;1271;22368;-59
2023/02/26 10:30:57;;;;;;;23.50;14.30;;;;;;;12.86;61.72;100696.16;110121;1272;23159;-59
2023/02/26 10:33:37;;;;;;;21.80;11.80;;;;;;;12.93;61.68;100707.05;110064;1272;22369;-59
2023/02/26 10:36:25;;;;;;;21.10;13.90;;;;;;;13.03;61.82;100711.28;110147;1269;23000;-58
2023/02/26 10:39:02;;;;;;;21.00;13.50;;;;;;;13.16;61.57;100705.48;110351;1268;22136;-59
2023/02/26 10:41:33;;;;;;;25.40;14.70;;;;;;;13.27;61.27;100718.17;109770;1268;1002158;-59
2023/02/26 10:44:04;;;;;;;26.50;13.00;;;;;;;13.37;60.97;100718.55;110633;1268;23097;-58
2023/02/26 10:47:01;;;;;;;24.90;12.20;;;;;;;13.43;60.54;100707.18;110242;1272;22387;-60
2023/02/26 10:49:48;;;;;;;22.00;10.80;;;;;;;13.48;60.41;100705.59;110491;1276;22789;-58
2023/02/26 10:52:24;;;;;;;18.70;10.80;;;;;;;13.56;60.12;100713.17;110608;1268;22119;-59
2023/02/26 10:55:02;;;;;;;25.30;12.80;;;;;;;13.64;59.67;100702.60;110574;1275;22152;-59
2023/02/26 10:57:33;;;;;;;22.80;13.00;;;;;;;13.68;59.52;100699.52;110560;1275;22403;-59
2023/02/26 11:00:05;;;;;;;17.20;11.00;;;;;;;13.71;59.22;100704.64;109356;1273;1002691;-59
2023/02/26 11:02:38;;;;;;;19.20;10.10;;;;;;;13.75;59.13;100703.97;110322;1273;22153;-59
2023/02/26 11:05:14;;;;;;;21.10;10.50;;;;;;;13.77;59.31;100693.77;110537;1268;23164;-59
2023/02/26 11:07:44;;;;;;;24.10;11.90;;;;;;;13.80;59.32;100699.05;110270;1272;22250;-59
2023/02/26 11:10:22;;;;;;;28.40;11.90;;;;;;;13.85;59.12;100703.92;110330;1275;23322;-59
2023/02/26 11:12:51;;;;;;;22.90;10.70;;;;;;;13.92;58.78;100711.19;110514;1269;22401;-59
2023/02/26 11:15:21;;;;;;;21.80;11.00;;;;;;;13.96;58.51;100706.70;109790;1269;1002909;-59
2023/02/26 11:17:53;;;;;;;19.00;10.00;;;;;;;13.97;58.63;100705.95;110543;1272;22454;-59
2023/02/26 11:20:36;;;;;;;19.50;8.60;;;;;;;14.00;58.72;100704.96;110514;1275;22420;-58
2023/02/26 11:23:06;;;;;;;19.60;8.30;;;;;;;14.03;58.32;100711.66;110401;1275;22819;-58
2023/02/26 11:25:36;;;;;;;25.70;10.20;;;;;;;14.03;58.07;100712.38;110526;1269;22185;-59
2023/02/26 11:28:40;;;;;;;20.30;10.00;;;;;;;14.03;58.10;100702.75;109581;1272;1002801;-58